Time;durP1;ratioP1;P1;durP2;ratioP2;P2;SDS_P1;SDS_P2;PMS_P1;PMS_P2;Temp;Humidity;BMP_temperature;BMP_pressure;BME280_temperature;BME280_humidity;BME280_pressure;Samples;Min_cycle;Max_cycle;Signal;HPM_P1;HPM_P2
2023/10/23 00:01:38;;;;;;;20.25;11.65;;;5.30;99.90;;;;;;5072992;28;20131;-26
2023/10/23 00:04:07;;;;;;;18.40;11.60;;;5.30;99.90;;;;;;5073521;28;20036;-25
2023/10/23 00:06:33;;;;;;;17.75;11.68;;;5.30;99.90;;;;;;5073667;28;20105;-25
2023/10/23 00:08:59;;;;;;;18.85;11.82;;;5.30;99.90;;;;;;5073692;28;20041;-25
2023/10/23 00:11:31;;;;;;;18.70;12.48;;;5.20;99.90;;;;;;5073533;28;20115;-25
2023/10/23 00:13:57;;;;;;;19.50;11.70;;;5.20;99.90;;;;;;5074281;28;20044;-24
2023/10/23 00:16:23;;;;;;;17.35;10.80;;;5.20;99.90;;;;;;5074146;28;20273;-25
2023/10/23 00:18:49;;;;;;;21.65;12.27;;;5.20;99.90;;;;;;5073524;28;20127;-25
2023/10/23 00:21:16;;;;;;;18.13;11.85;;;5.10;99.90;;;;;;5073510;28;20098;-25
2023/10/23 00:23:42;;;;;;;22.40;12.48;;;5.10;99.90;;;;;;5073457;28;20095;-25
2023/10/23 00:26:07;;;;;;;19.35;13.00;;;5.10;99.90;;;;;;5073481;28;20486;-25
2023/10/23 00:28:34;;;;;;;23.25;12.93;;;5.10;99.90;;;;;;5073092;28;20084;-25
2023/10/23 00:31:00;;;;;;;26.02;13.65;;;5.00;99.90;;;;;;5073464;28;20402;-25
2023/10/23 00:33:26;;;;;;;23.85;13.20;;;5.10;99.90;;;;;;5073991;28;20052;-25
2023/10/23 00:35:53;;;;;;;25.23;13.15;;;5.10;99.90;;;;;;5073391;28;20110;-25
2023/10/23 00:38:19;;;;;;;24.13;13.57;;;5.10;99.90;;;;;;5073416;28;20123;-26
2023/10/23 00:40:45;;;;;;;21.05;12.77;;;5.00;99.90;;;;;;5072374;28;20558;-25
2023/10/23 00:43:23;;;;;;;23.55;14.05;;;5.00;99.90;;;;;;5073323;28;20505;-25
2023/10/23 00:46:01;;;;;;;20.20;13.30;;;5.00;99.90;;;;;;5072066;28;20049;-25
2023/10/23 00:48:27;;;;;;;22.52;13.95;;;5.00;99.90;;;;;;5073313;28;20040;-25
2023/10/23 00:50:58;;;;;;;21.83;13.80;;;5.10;99.90;;;;;;5073528;28;20091;-25
2023/10/23 00:53:26;;;;;;;22.67;13.93;;;5.10;99.90;;;;;;5074056;28;20051;-25
2023/10/23 00:55:54;;;;;;;26.05;14.70;;;5.10;99.90;;;;;;5073767;28;20433;-25
2023/10/23 00:58:22;;;;;;;24.02;14.50;;;5.00;99.90;;;;;;5073162;28;20041;-25
2023/10/23 01:00:48;;;;;;;22.08;14.38;;;5.10;99.90;;;;;;5073210;28;20052;-25
2023/10/23 01:03:14;;;;;;;23.38;14.02;;;5.10;99.90;;;;;;5073074;28;20127;-26
2023/10/23 01:05:41;;;;;;;27.70;15.13;;;5.10;99.90;;;;;;5054995;28;20045;-25
2023/10/23 01:08:07;;;;;;;26.08;16.02;;;5.10;99.90;;;;;;5073106;28;20052;-25
2023/10/23 01:10:33;;;;;;;33.63;16.08;;;5.20;99.90;;;;;;5072681;28;20060;-26
2023/10/23 01:12:59;;;;;;;28.35;15.13;;;5.20;99.90;;;;;;5073682;28;20072;-25
2023/10/23 01:15:26;;;;;;;24.52;15.45;;;5.10;99.90;;;;;;5076044;28;20072;-25
2023/10/23 01:17:52;;;;;;;26.83;15.38;;;5.10;99.90;;;;;;5076696;28;20052;-25
2023/10/23 01:20:18;;;;;;;25.85;15.38;;;5.00;99.90;;;;;;5076318;28;20048;-27
2023/10/23 01:22:44;;;;;;;29.50;16.25;;;5.00;99.90;;;;;;5076626;28;20048;-25
2023/10/23 01:25:18;;;;;;;26.70;15.63;;;5.00;99.90;;;;;;5076448;28;20044;-25
2023/10/23 01:27:44;;;;;;;27.35;16.02;;;5.00;99.90;;;;;;5076525;28;20553;-25
2023/10/23 01:30:10;;;;;;;31.40;17.27;;;5.00;99.90;;;;;;5075784;28;20127;-25
2023/10/23 01:32:37;;;;;;;33.72;16.85;;;4.90;99.90;;;;;;5076412;28;20483;-24
2023/10/23 01:35:03;;;;;;;29.02;16.75;;;4.80;99.90;;;;;;5076434;28;20067;-25
2023/10/23 01:37:29;;;;;;;24.65;16.15;;;4.80;99.90;;;;;;5076396;28;20044;-25
2023/10/23 01:39:55;;;;;;;27.70;16.95;;;4.80;99.90;;;;;;5076863;28;20044;-25
2023/10/23 01:42:21;;;;;;;34.75;18.55;;;4.80;99.90;;;;;;5077099;28;20131;-25
2023/10/23 01:44:47;;;;;;;32.55;17.10;;;4.80;99.90;;;;;;5076160;28;20515;-25
2023/10/23 01:47:13;;;;;;;28.85;15.98;;;4.70;99.90;;;;;;5076712;28;20048;-25
2023/10/23 01:49:38;;;;;;;26.55;16.80;;;4.60;99.90;;;;;;5076080;28;20185;-25
2023/10/23 01:52:04;;;;;;;33.47;17.83;;;4.60;99.90;;;;;;5075738;28;20084;-24
2023/10/23 01:54:30;;;;;;;30.33;16.33;;;4.60;99.90;;;;;;5076601;28;20046;-25
2023/10/23 01:56:57;;;;;;;41.67;19.73;;;4.50;99.90;;;;;;5076515;28;20052;-25
2023/10/23 01:59:23;;;;;;;35.22;18.73;;;4.50;99.90;;;;;;5075950;28;20052;-24
2023/10/23 02:01:49;;;;;;;37.47;18.17;;;4.40;99.90;;;;;;5076476;28;20463;-25
2023/10/23 02:04:14;;;;;;;34.92;18.20;;;4.50;99.90;;;;;;5058063;28;20105;-25
2023/10/23 02:06:40;;;;;;;29.13;16.88;;;4.50;99.90;;;;;;5076337;28;20051;-25
2023/10/23 02:09:07;;;;;;;34.95;18.83;;;4.60;99.90;;;;;;5075762;28;20123;-24
2023/10/23 02:11:33;;;;;;;32.67;17.42;;;4.60;99.90;;;;;;5075640;28;20052;-25
2023/10/23 02:14:00;;;;;;;33.28;17.85;;;4.60;99.90;;;;;;5076177;28;20135;-25
2023/10/23 02:16:25;;;;;;;33.67;18.65;;;4.60;99.90;;;;;;5075587;28;20044;-25
2023/10/23 02:18:51;;;;;;;27.55;17.05;;;4.50;99.90;;;;;;5074421;28;20044;-25
2023/10/23 02:21:17;;;;;;;39.28;20.58;;;4.50;99.90;;;;;;5075549;28;20048;-25
2023/10/23 02:23:43;;;;;;;36.85;19.13;;;4.50;99.90;;;;;;5075436;28;20501;-25
2023/10/23 02:26:08;;;;;;;32.10;17.92;;;4.50;99.90;;;;;;5075984;28;20048;-25
2023/10/23 02:28:34;;;;;;;34.90;16.35;;;4.40;99.90;;;;;;5075332;28;20079;-27
2023/10/23 02:31:03;;;;;;;32.45;18.65;;;4.30;99.90;;;;;;5075304;28;20049;-25
2023/10/23 02:33:29;;;;;;;43.22;21.13;;;4.30;99.90;;;;;;5075265;28;20127;-26
2023/10/23 02:35:56;;;;;;;56.05;20.38;;;4.30;99.90;;;;;;5075260;28;20127;-25
2023/10/23 02:38:21;;;;;;;31.85;17.80;;;4.30;99.90;;;;;;5073895;28;20461;-25
2023/10/23 02:40:54;;;;;;;43.42;18.48;;;4.30;99.90;;;;;;5075099;28;20044;-25
2023/10/23 02:43:20;;;;;;;39.33;18.67;;;4.20;99.90;;;;;;5057747;28;20067;-25
2023/10/23 02:45:46;;;;;;;79.35;19.10;;;4.30;99.90;;;;;;5075238;28;20044;-25
2023/10/23 02:48:13;;;;;;;105.03;22.67;;;4.20;99.90;;;;;;5075031;28;20056;-25
2023/10/23 02:50:38;;;;;;;68.78;19.50;;;4.20;99.90;;;;;;5074258;28;20383;-25
2023/10/23 02:53:06;;;;;;;75.20;21.23;;;4.20;99.90;;;;;;5075391;28;20052;-25
2023/10/23 02:55:31;;;;;;;58.72;19.33;;;4.20;99.90;;;;;;5073555;28;20475;-25
2023/10/23 02:57:57;;;;;;;45.17;19.48;;;4.30;99.90;;;;;;5074506;28;20083;-26
2023/10/23 03:00:23;;;;;;;50.92;18.55;;;4.30;99.90;;;;;;5074772;28;20141;-25
2023/10/23 03:02:49;;;;;;;84.50;21.60;;;4.30;99.90;;;;;;5074721;28;20048;-25
2023/10/23 03:05:16;;;;;;;84.88;23.60;;;4.30;99.90;;;;;;5074557;28;20098;-25
2023/10/23 03:07:42;;;;;;;119.53;23.27;;;4.40;99.90;;;;;;5074629;28;20092;-25
2023/10/23 03:10:09;;;;;;;96.88;24.63;;;4.40;99.90;;;;;;5073090;28;20052;-25
2023/10/23 03:12:38;;;;;;;68.60;20.00;;;4.40;99.90;;;;;;5074552;28;20135;-25
2023/10/23 03:15:04;;;;;;;78.75;21.20;;;4.30;99.90;;;;;;5075286;28;20044;-25
2023/10/23 03:17:30;;;;;;;40.00;18.48;;;4.30;99.90;;;;;;5074397;28;20044;-25
2023/10/23 03:19:56;;;;;;;36.78;18.65;;;4.30;99.90;;;;;;5074209;28;20044;-26
2023/10/23 03:22:22;;;;;;;53.25;20.10;;;4.30;99.90;;;;;;5075142;28;20059;-26
2023/10/23 03:24:48;;;;;;;53.35;20.00;;;4.30;99.90;;;;;;5074821;28;20489;-25
2023/10/23 03:27:13;;;;;;;51.88;19.35;;;4.30;99.90;;;;;;5073309;28;20045;-25
2023/10/23 03:29:43;;;;;;;44.15;19.35;;;4.30;99.90;;;;;;5074219;28;20384;-25
2023/10/23 03:32:09;;;;;;;44.72;18.60;;;4.30;99.90;;;;;;5074713;28;20055;-25
2023/10/23 03:34:35;;;;;;;34.55;19.17;;;4.30;99.90;;;;;;5072935;28;20040;-25
2023/10/23 03:37:00;;;;;;;35.15;18.75;;;4.30;99.90;;;;;;5056367;28;20055;-25
2023/10/23 03:39:26;;;;;;;49.45;21.10;;;4.30;99.90;;;;;;5073991;28;20048;-25
2023/10/23 03:41:52;;;;;;;46.00;22.15;;;4.30;99.90;;;;;;5073026;28;20044;-25
2023/10/23 03:44:18;;;;;;;55.40;22.33;;;4.30;99.90;;;;;;5074132;28;20048;-26
2023/10/23 03:46:44;;;;;;;54.78;22.58;;;4.30;99.90;;;;;;5073771;28;20076;-25
2023/10/23 03:49:10;;;;;;;44.05;21.35;;;4.30;99.90;;;;;;5073916;28;20052;-25
2023/10/23 03:51:36;;;;;;;38.50;19.48;;;4.30;99.90;;;;;;5074658;28;20493;-25
2023/10/23 03:54:01;;;;;;;44.35;20.83;;;4.40;99.90;;;;;;5074431;28;20123;-25
2023/10/23 03:56:27;;;;;;;51.30;23.00;;;4.30;99.90;;;;;;5073814;28;20399;-25
2023/10/23 03:58:53;;;;;;;49.05;21.35;;;4.30;99.90;;;;;;5073754;28;20371;-25
2023/10/23 04:01:19;;;;;;;42.70;20.98;;;4.20;99.90;;;;;;5073991;28;20048;-25
2023/10/23 04:03:44;;;;;;;47.03;21.60;;;4.20;99.90;;;;;;5073144;28;20553;-25
2023/10/23 04:06:10;;;;;;;44.63;21.83;;;4.20;99.90;;;;;;5072816;28;20123;-25
2023/10/23 04:08:36;;;;;;;54.00;22.85;;;4.20;99.90;;;;;;5073664;28;20045;-25
2023/10/23 04:11:03;;;;;;;40.90;20.30;;;4.20;99.90;;;;;;5072485;28;20133;-25
2023/10/23 04:13:29;;;;;;;42.03;20.58;;;4.20;99.90;;;;;;5072344;28;20101;-25
2023/10/23 04:15:58;;;;;;;44.70;20.38;;;4.20;99.90;;;;;;5073580;28;20040;-25
2023/10/23 04:18:27;;;;;;;43.17;20.58;;;4.00;99.90;;;;;;5073580;28;20044;-25
2023/10/23 04:21:07;;;;;;;44.65;21.08;;;4.00;99.90;;;;;;5073824;28;20048;-25
2023/10/23 04:23:33;;;;;;;41.65;20.42;;;4.00;99.90;;;;;;5072466;28;20483;-25
2023/10/23 04:25:59;;;;;;;53.42;21.73;;;4.00;99.90;;;;;;5074248;28;20055;-25
2023/10/23 04:28:26;;;;;;;56.45;23.08;;;3.90;99.90;;;;;;5073537;28;20403;-25
2023/10/23 04:30:51;;;;;;;61.63;24.38;;;3.90;99.90;;;;;;5072019;28;20494;-25
2023/10/23 04:33:24;;;;;;;72.38;25.13;;;3.90;99.90;;;;;;5072266;28;20161;-25
2023/10/23 04:35:55;;;;;;;132.82;25.67;;;3.90;99.90;;;;;;5072945;28;20037;-25
2023/10/23 04:38:21;;;;;;;332.05;35.92;;;3.90;99.90;;;;;;5073299;28;20056;-25
2023/10/23 04:40:47;;;;;;;147.43;24.38;;;3.90;99.90;;;;;;5072664;28;20051;-25
2023/10/23 04:43:13;;;;;;;45.45;19.55;;;3.90;99.90;;;;;;5073381;28;20506;-25
2023/10/23 04:45:39;;;;;;;80.35;22.83;;;3.90;99.90;;;;;;5071960;28;20045;-26
2023/10/23 04:48:06;;;;;;;48.95;19.38;;;3.80;99.90;;;;;;5074201;28;20043;-26
2023/10/23 04:50:40;;;;;;;51.63;19.27;;;3.80;99.90;;;;;;5077298;28;20051;-26
2023/10/23 04:53:06;;;;;;;41.58;19.17;;;3.70;99.90;;;;;;5077272;28;20049;-26
2023/10/23 04:55:33;;;;;;;43.72;20.52;;;3.70;99.90;;;;;;5076877;28;20510;-25
2023/10/23 04:58:00;;;;;;;37.08;19.65;;;3.70;99.90;;;;;;5077636;28;20051;-25
2023/10/23 05:00:27;;;;;;;46.08;21.50;;;3.80;99.90;;;;;;5077576;28;20406;-25
2023/10/23 05:02:52;;;;;;;40.60;21.23;;;3.60;99.90;;;;;;5077443;28;20059;-25
2023/10/23 05:05:18;;;;;;;50.50;23.33;;;4.00;99.90;;;;;;5076925;28;20052;-25
2023/10/23 05:07:44;;;;;;;55.72;22.52;;;3.50;99.90;;;;;;5076897;28;20490;-25
2023/10/23 05:10:11;;;;;;;43.42;22.17;;;3.50;99.90;;;;;;5076598;28;20414;-25
2023/10/23 05:12:37;;;;;;;39.40;20.73;;;3.40;99.90;;;;;;5075679;28;20048;-25
2023/10/23 05:15:04;;;;;;;56.53;24.40;;;3.40;99.90;;;;;;5076065;28;20048;-25
2023/10/23 05:17:30;;;;;;;220.20;32.38;;;3.40;99.90;;;;;;5076701;28;20048;-25
2023/10/23 05:19:56;;;;;;;287.92;33.92;;;3.50;99.90;;;;;;5076652;28;20158;-25
2023/10/23 05:22:22;;;;;;;179.73;28.58;;;3.50;99.90;;;;;;5076615;28;20055;-26
2023/10/23 05:24:48;;;;;;;114.13;25.38;;;3.60;99.90;;;;;;5076519;28;20421;-25
2023/10/23 05:27:15;;;;;;;113.57;25.08;;;3.60;99.90;;;;;;5076846;28;20434;-25
2023/10/23 05:29:40;;;;;;;92.68;21.67;;;3.60;99.90;;;;;;5076497;28;20041;-25
2023/10/23 05:32:07;;;;;;;65.97;19.73;;;3.40;99.90;;;;;;5076336;28;20082;-25
2023/10/23 05:34:33;;;;;;;40.83;18.58;;;3.50;99.90;;;;;;5076390;28;20113;-25
2023/10/23 05:36:59;;;;;;;54.63;21.55;;;3.40;99.90;;;;;;5075430;28;20053;-25
2023/10/23 05:39:26;;;;;;;46.55;21.88;;;3.40;99.90;;;;;;5076309;28;20048;-25
2023/10/23 05:41:52;;;;;;;60.63;23.98;;;3.40;99.90;;;;;;5075114;28;20159;-25
2023/10/23 05:44:17;;;;;;;86.97;26.40;;;3.40;99.90;;;;;;5075929;28;20045;-25
2023/10/23 05:46:43;;;;;;;70.50;23.23;;;3.40;99.90;;;;;;5076205;28;20055;-25
2023/10/23 05:49:09;;;;;;;52.05;22.33;;;3.40;99.90;;;;;;5075187;28;20051;-25
2023/10/23 05:51:35;;;;;;;63.55;25.60;;;3.50;99.90;;;;;;5076118;28;20041;-25
2023/10/23 05:54:02;;;;;;;50.15;23.52;;;3.40;99.90;;;;;;5075162;28;20045;-25
2023/10/23 05:56:29;;;;;;;63.05;25.80;;;3.40;99.90;;;;;;5075703;28;20052;-25
2023/10/23 05:58:54;;;;;;;49.08;22.58;;;3.40;99.90;;;;;;5075123;28;20090;-25
2023/10/23 06:01:20;;;;;;;44.15;22.20;;;3.50;99.90;;;;;;5075864;28;20421;-25
2023/10/23 06:03:46;;;;;;;54.10;23.45;;;3.40;99.90;;;;;;5076033;28;20044;-26
2023/10/23 06:06:13;;;;;;;48.58;22.38;;;3.30;99.90;;;;;;5057945;28;20052;-25
2023/10/23 06:08:39;;;;;;;44.80;21.73;;;3.40;99.90;;;;;;5076336;28;20052;-26
2023/10/23 06:11:11;;;;;;;41.88;20.52;;;3.40;99.90;;;;;;5075905;28;20490;-25
2023/10/23 06:13:38;;;;;;;65.75;22.67;;;3.40;99.90;;;;;;5075732;28;20132;-25
2023/10/23 06:16:04;;;;;;;39.72;19.77;;;3.30;99.90;;;;;;5074404;28;20045;-25
2023/10/23 06:18:34;;;;;;;59.28;23.60;;;3.40;99.90;;;;;;5075878;28;20044;-25
2023/10/23 06:21:03;;;;;;;44.95;20.70;;;3.20;99.90;;;;;;5074616;28;20478;-26
2023/10/23 06:23:37;;;;;;;45.22;21.85;;;3.20;99.90;;;;;;5075562;28;20076;-25
2023/10/23 06:26:03;;;;;;;94.47;26.70;;;3.30;99.90;;;;;;5075433;28;20047;-26
2023/10/23 06:28:30;;;;;;;47.42;20.92;;;3.30;99.90;;;;;;5075396;28;20063;-26
2023/10/23 06:30:55;;;;;;;85.30;23.27;;;3.20;99.90;;;;;;5075051;28;20083;-25
2023/10/23 06:33:21;;;;;;;101.25;26.38;;;3.30;99.90;;;;;;5075580;28;20080;-27
2023/10/23 06:35:57;;;;;;;608.47;179.75;;;3.40;99.90;;;;;;5074503;28;20048;-26
2023/10/23 06:38:23;;;;;;;187.45;62.45;;;3.40;99.90;;;;;;5074271;28;20139;-26
2023/10/23 06:40:48;;;;;;;92.20;47.47;;;3.40;99.90;;;;;;5075173;28;20119;-26
2023/10/23 06:43:14;;;;;;;62.55;32.38;;;3.50;99.90;;;;;;5075168;28;20478;-26
2023/10/23 06:45:40;;;;;;;65.40;26.35;;;3.40;99.90;;;;;;5075257;28;20044;-26
2023/10/23 06:48:06;;;;;;;55.78;24.77;;;3.60;99.90;;;;;;5074793;28;20048;-26
2023/10/23 06:50:32;;;;;;;51.08;23.45;;;3.60;99.90;;;;;;5057173;28;20132;-26
2023/10/23 06:52:57;;;;;;;48.95;25.05;;;3.60;99.90;;;;;;5075221;28;20548;-26
2023/10/23 06:55:24;;;;;;;47.38;23.40;;;3.60;99.90;;;;;;5073950;28;20049;-26
2023/10/23 06:57:50;;;;;;;53.55;24.90;;;3.60;99.90;;;;;;5074871;28;20418;-26
2023/10/23 07:00:16;;;;;;;48.83;24.33;;;3.60;99.90;;;;;;5058010;28;20050;-26
2023/10/23 07:02:42;;;;;;;55.67;25.55;;;3.80;99.90;;;;;;5074666;28;20068;-26
2023/10/23 07:05:08;;;;;;;56.95;26.77;;;3.80;99.90;;;;;;5074532;28;20036;-26
2023/10/23 07:07:34;;;;;;;60.60;27.38;;;3.90;99.90;;;;;;5075460;28;20045;-26
2023/10/23 07:09:59;;;;;;;56.65;26.13;;;4.00;99.90;;;;;;5073069;28;20502;-27
2023/10/23 07:12:26;;;;;;;66.95;28.42;;;4.10;99.90;;;;;;5075126;28;20052;-26
2023/10/23 07:14:51;;;;;;;55.83;27.48;;;4.10;99.90;;;;;;5074492;28;20045;-26
2023/10/23 07:17:18;;;;;;;51.78;26.60;;;4.10;99.90;;;;;;5075265;28;20067;-26
2023/10/23 07:19:43;;;;;;;55.67;25.95;;;4.20;99.90;;;;;;5074920;28;20387;-26
2023/10/23 07:22:09;;;;;;;70.53;29.00;;;4.40;99.90;;;;;;5073320;28;20049;-26
2023/10/23 07:24:35;;;;;;;46.38;25.05;;;4.40;99.90;;;;;;5074199;28;20044;-26
2023/10/23 07:27:01;;;;;;;55.38;25.92;;;4.50;99.90;;;;;;5074231;28;20040;-26
2023/10/23 07:29:27;;;;;;;54.53;26.83;;;4.40;99.90;;;;;;5074182;28;20127;-26
2023/10/23 07:31:52;;;;;;;53.35;28.23;;;4.50;99.90;;;;;;5074137;28;20044;-26
2023/10/23 07:34:18;;;;;;;72.85;36.13;;;4.60;99.90;;;;;;5074103;28;20066;-27
2023/10/23 07:36:44;;;;;;;47.17;29.25;;;4.80;99.90;;;;;;5056325;28;20041;-27
2023/10/23 07:39:10;;;;;;;45.47;25.08;;;4.90;99.90;;;;;;5073979;28;20051;-26
2023/10/23 07:41:36;;;;;;;44.80;24.90;;;4.90;99.90;;;;;;5072891;28;20092;-26
2023/10/23 07:44:02;;;;;;;45.40;26.23;;;5.00;99.90;;;;;;5073913;28;20466;-26
2023/10/23 07:46:28;;;;;;;52.88;27.55;;;5.10;99.90;;;;;;5074486;28;20048;-26
2023/10/23 07:48:53;;;;;;;43.67;25.83;;;5.30;99.90;;;;;;5074541;28;20177;-26
2023/10/23 07:51:19;;;;;;;58.67;28.33;;;5.50;99.90;;;;;;5072853;28;20044;-26
2023/10/23 07:53:45;;;;;;;51.05;27.65;;;5.50;99.90;;;;;;5073852;28;20121;-26
2023/10/23 07:56:14;;;;;;;44.70;26.60;;;5.60;99.90;;;;;;5073856;28;20051;-27
2023/10/23 07:58:40;;;;;;;45.33;26.33;;;5.70;99.90;;;;;;5073683;28;20470;-27
2023/10/23 08:01:08;;;;;;;46.13;26.17;;;5.60;99.90;;;;;;5072594;28;20185;-27
2023/10/23 08:03:35;;;;;;;41.20;26.13;;;5.70;99.90;;;;;;5073316;28;20091;-28
2023/10/23 08:06:03;;;;;;;51.65;27.77;;;5.90;99.90;;;;;;5072478;28;20051;-27
2023/10/23 08:08:31;;;;;;;41.38;25.02;;;5.90;99.90;;;;;;5073685;28;20123;-27
2023/10/23 08:10:57;;;;;;;43.15;24.25;;;6.00;99.90;;;;;;5072416;28;20063;-27
2023/10/23 08:13:22;;;;;;;40.83;24.85;;;6.20;99.90;;;;;;5073629;28;20061;-27
2023/10/23 08:15:49;;;;;;;42.35;23.67;;;6.20;99.90;;;;;;5073608;28;20437;-26
2023/10/23 08:18:15;;;;;;;40.45;24.70;;;6.20;99.90;;;;;;5072424;28;20102;-26
2023/10/23 08:20:40;;;;;;;41.53;24.10;;;6.30;99.90;;;;;;5072234;28;20040;-26
2023/10/23 08:23:07;;;;;;;39.65;24.67;;;6.40;99.90;;;;;;5072153;28;20079;-25
2023/10/23 08:25:32;;;;;;;50.33;26.45;;;6.40;99.90;;;;;;5073487;28;20045;-25
2023/10/23 08:27:59;;;;;;;39.42;23.95;;;6.50;99.90;;;;;;5073516;28;20474;-25
2023/10/23 08:30:25;;;;;;;33.58;22.20;;;6.70;99.90;;;;;;5073495;28;20049;-25
2023/10/23 08:32:51;;;;;;;33.75;23.30;;;6.80;99.90;;;;;;5055847;28;20183;-25
2023/10/23 08:35:19;;;;;;;30.17;20.63;;;6.90;99.90;;;;;;5073141;28;20051;-25
2023/10/23 08:37:45;;;;;;;36.50;23.05;;;7.10;99.90;;;;;;5072406;28;20406;-25
2023/10/23 08:40:11;;;;;;;33.95;22.58;;;7.10;99.90;;;;;;5073482;28;20045;-25
2023/10/23 08:42:38;;;;;;;39.08;23.30;;;7.30;99.90;;;;;;5073650;28;20048;-25
2023/10/23 08:45:04;;;;;;;37.20;24.38;;;7.50;99.90;;;;;;5073141;28;20134;-25
2023/10/23 08:47:30;;;;;;;39.13;23.50;;;7.50;99.90;;;;;;5073317;28;20052;-25
2023/10/23 08:49:59;;;;;;;36.85;23.05;;;7.80;99.90;;;;;;5073378;28;20041;-25
2023/10/23 08:52:27;;;;;;;36.60;23.40;;;7.90;99.90;;;;;;5073561;28;20090;-25
2023/10/23 08:54:54;;;;;;;30.17;21.52;;;7.80;99.90;;;;;;5072078;28;20410;-25
2023/10/23 08:57:21;;;;;;;30.80;22.30;;;8.00;99.90;;;;;;5073237;28;20044;-25
2023/10/23 08:59:47;;;;;;;28.20;20.80;;;8.00;99.90;;;;;;5073761;28;20395;-25
2023/10/23 09:02:13;;;;;;;27.35;19.92;;;8.10;99.90;;;;;;5072225;28;20048;-25
2023/10/23 09:04:39;;;;;;;30.02;21.90;;;8.30;99.90;;;;;;5073255;28;20041;-25
2023/10/23 09:07:05;;;;;;;33.67;24.02;;;8.50;99.90;;;;;;5072440;28;20474;-25
2023/10/23 09:09:31;;;;;;;26.20;20.83;;;9.40;99.90;;;;;;5073076;28;20084;-25
2023/10/23 09:11:57;;;;;;;20.85;15.70;;;10.50;99.90;;;;;;5073145;28;20049;-25
2023/10/23 09:14:30;;;;;;;17.90;12.38;;;11.30;99.90;;;;;;5073623;28;20080;-24
2023/10/23 09:16:59;;;;;;;15.85;12.23;;;11.70;99.90;;;;;;5055447;28;20402;-25
2023/10/23 09:19:40;;;;;;;11.68;8.50;;;12.20;99.90;;;;;;5073034;28;20072;-25
2023/10/23 09:22:06;;;;;;;10.32;7.30;;;12.60;99.90;;;;;;5073623;28;20049;-26
2023/10/23 09:24:33;;;;;;;8.32;6.30;;;13.20;99.90;;;;;;5072870;28;20044;-26
2023/10/23 09:26:59;;;;;;;6.85;5.75;;;13.60;99.90;;;;;;5072975;28;20076;-26
2023/10/23 09:29:25;;;;;;;5.72;5.10;;;13.80;99.90;;;;;;5073183;28;20076;-26
2023/10/23 09:32:00;;;;;;;9.50;6.30;;;14.30;99.90;;;;;;5072914;28;20113;-26
2023/10/23 09:34:26;;;;;;;25.52;17.38;;;14.70;99.90;;;;;;5073672;28;20496;-27
2023/10/23 09:36:52;;;;;;;6.88;5.70;;;15.10;99.90;;;;;;5076525;28;20051;-26
2023/10/23 09:39:21;;;;;;;5.82;4.57;;;15.50;99.90;;;;;;5076435;28;20611;-26
2023/10/23 09:41:47;;;;;;;4.43;4.03;;;15.90;99.90;;;;;;5075245;28;20059;-26
2023/10/23 09:44:14;;;;;;;7.20;5.32;;;16.20;99.90;;;;;;5076183;28;20048;-26
2023/10/23 09:46:42;;;;;;;21.30;11.20;;;16.40;99.90;;;;;;5076270;28;20141;-26
2023/10/23 09:49:09;;;;;;;84.55;43.28;;;16.70;99.90;;;;;;5076188;28;20057;-26
2023/10/23 09:51:40;;;;;;;16.25;9.13;;;16.80;99.90;;;;;;5076182;28;20044;-26
2023/10/23 09:54:19;;;;;;;7.40;5.30;;;17.00;99.90;;;;;;5075430;28;20391;-26
2023/10/23 09:56:53;;;;;;;5.35;4.15;;;17.10;99.90;;;;;;5076044;28;20102;-26
2023/10/23 09:59:42;;;;;;;10.93;5.55;;;17.20;99.90;;;;;;5076082;28;20049;-26
2023/10/23 10:02:09;;;;;;;6.60;3.65;;;17.40;99.90;;;;;;5076106;28;20054;-27
2023/10/23 10:04:56;;;;;;;5.25;4.15;;;17.50;99.90;;;;;;5075775;28;20044;-26
2023/10/23 10:07:31;;;;;;;4.85;4.22;;;17.50;99.90;;;;;;5075240;28;20048;-26
2023/10/23 10:09:57;;;;;;;4.57;3.80;;;17.70;99.90;;;;;;5075503;28;20052;-28
2023/10/23 10:12:23;;;;;;;7.57;3.60;;;17.90;99.90;;;;;;5075849;28;20074;-27
2023/10/23 10:14:50;;;;;;;5.00;2.95;;;18.00;16.90;;;;;;5076529;28;20047;-26
2023/10/23 10:17:20;;;;;;;6.13;3.47;;;18.10;1.00;;;;;;5075696;28;20055;-27
2023/10/23 10:19:46;;;;;;;4.55;3.28;;;18.20;1.00;;;;;;5075640;28;20040;-26
2023/10/23 10:22:23;;;;;;;5.20;3.20;;;18.30;1.00;;;;;;5075605;28;20048;-26
2023/10/23 10:24:50;;;;;;;4.57;2.90;;;18.30;99.90;;;;;;5058625;28;20051;-26
2023/10/23 10:27:16;;;;;;;6.18;2.97;;;18.40;99.90;;;;;;5075217;28;20410;-27
2023/10/23 10:29:42;;;;;;;2.78;2.53;;;18.30;99.90;;;;;;5074321;28;20429;-27
2023/10/23 10:32:10;;;;;;;2.85;2.17;;;18.20;99.90;;;;;;5074247;28;20094;-27
2023/10/23 10:34:50;;;;;;;5.32;2.50;;;18.20;99.90;;;;;;5075348;28;20498;-27
2023/10/23 10:37:16;;;;;;;2.72;2.03;;;18.30;1.00;;;;;;5075913;28;20059;-27
2023/10/23 10:39:50;;;;;;;4.13;2.10;;;18.30;85.60;;;;;;5075246;28;20080;-27
2023/10/23 10:42:21;;;;;;;3.50;2.10;;;18.30;99.90;;;;;;5075202;28;20105;-27
2023/10/23 10:44:54;;;;;;;5.53;2.55;;;18.40;1.00;;;;;;5074375;28;20623;-27
2023/10/23 10:47:21;;;;;;;;;;;18.40;1.00;;;;;;5075433;28;20080;-27
2023/10/23 10:49:48;;;;;;;6.25;3.08;;;18.30;1.00;;;;;;5075593;28;19980;-27
2023/10/23 10:52:33;;;;;;;2.20;1.70;;;18.30;1.00;;;;;;5073816;28;20041;-27
2023/10/23 10:55:08;;;;;;;2.90;2.03;;;18.20;99.90;;;;;;5074302;28;20139;-27
2023/10/23 10:57:35;;;;;;;5.90;4.18;;;18.10;99.90;;;;;;5074974;28;20056;-28
2023/10/23 11:00:03;;;;;;;6.20;3.88;;;18.00;1.00;;;;;;5073670;28;20115;-27
2023/10/23 11:02:29;;;;;;;2.53;1.50;;;18.00;1.00;;;;;;5075011;28;20048;-27
2023/10/23 11:04:54;;;;;;;2.58;1.20;;;17.90;99.90;;;;;;5074690;28;20052;-27
2023/10/23 11:07:23;;;;;;;3.20;1.30;;;17.80;99.90;;;;;;5074354;28;20044;-27
2023/10/23 11:09:49;;;;;;;4.35;1.38;;;17.60;99.90;;;;;;5074450;28;20048;-27
2023/10/23 11:12:18;;;;;;;1.80;1.02;;;17.40;99.90;;;;;;5074615;28;20059;-27
2023/10/23 11:14:44;;;;;;;4.05;1.50;;;17.40;99.90;;;;;;5074525;28;20040;-27
2023/10/23 11:17:11;;;;;;;5.13;1.80;;;17.30;1.00;;;;;;5073251;28;20053;-27
2023/10/23 11:19:37;;;;;;;5.57;1.60;;;17.40;1.00;;;;;;5074722;28;20376;-27
2023/10/23 11:22:07;;;;;;;4.07;1.80;;;17.50;1.00;;;;;;5075183;28;20086;-27
2023/10/23 11:24:33;;;;;;;4.35;1.77;;;17.60;1.00;;;;;;5074577;28;20440;-27
2023/10/23 11:26:59;;;;;;;3.45;1.13;;;17.80;1.00;;;;;;5074289;28;20049;-27
2023/10/23 11:29:25;;;;;;;2.63;0.90;;;17.90;99.90;;;;;;5074240;28;20067;-27
2023/10/23 11:31:52;;;;;;;2.92;1.38;;;17.80;99.90;;;;;;5073054;28;20045;-27
2023/10/23 11:34:18;;;;;;;2.35;1.40;;;17.90;99.90;;;;;;5073025;28;20101;-27
2023/10/23 11:36:46;;;;;;;2.28;1.30;;;17.80;99.90;;;;;;5074116;28;20048;-27
2023/10/23 11:39:13;;;;;;;2.33;0.88;;;17.80;99.90;;;;;;5074087;28;20105;-27
2023/10/23 11:41:39;;;;;;;2.45;1.05;;;17.60;99.90;;;;;;5074673;28;20209;-27
2023/10/23 11:44:07;;;;;;;3.85;1.73;;;17.50;99.90;;;;;;5074214;28;20107;-27
2023/10/23 11:46:34;;;;;;;3.88;1.17;;;17.50;99.90;;;;;;5073001;28;20091;-27
2023/10/23 11:49:01;;;;;;;2.92;1.20;;;17.40;99.90;;;;;;5074555;28;20052;-27
2023/10/23 11:51:27;;;;;;;4.70;1.30;;;17.20;99.90;;;;;;5072960;28;20044;-27
2023/10/23 11:53:55;;;;;;;3.60;1.42;;;17.30;99.90;;;;;;5073906;28;20509;-27
2023/10/23 11:56:20;;;;;;;4.40;1.55;;;17.20;99.90;;;;;;5074382;28;20049;-28
2023/10/23 11:58:46;;;;;;;2.92;1.35;;;17.10;1.00;;;;;;5055610;28;20045;-27
2023/10/23 12:01:12;;;;;;;3.50;1.45;;;17.00;1.00;;;;;;5073516;28;20119;-27
2023/10/23 12:03:37;;;;;;;2.83;1.33;;;16.80;1.00;;;;;;5073710;28;20047;-28
2023/10/23 12:06:05;;;;;;;5.05;1.25;;;16.70;1.00;;;;;;5072123;28;20556;-29
2023/10/23 12:08:31;;;;;;;7.20;1.08;;;16.80;6.40;;;;;;5074272;28;20186;-27
2023/10/23 12:10:57;;;;;;;2.42;0.95;;;16.80;1.00;;;;;;5072277;28;20061;-27
2023/10/23 12:13:24;;;;;;;0.93;0.63;;;17.00;1.00;;;;;;5073667;28;20132;-27
2023/10/23 12:15:50;;;;;;;1.80;0.70;;;17.20;1.00;;;;;;5055816;28;20496;-28
2023/10/23 12:18:15;;;;;;;2.95;0.90;;;17.30;99.90;;;;;;5073598;28;20131;-27
2023/10/23 12:20:41;;;;;;;3.92;0.90;;;17.30;99.90;;;;;;5073603;28;20375;-27
2023/10/23 12:23:07;;;;;;;2.47;0.77;;;17.20;99.90;;;;;;5073636;28;20051;-27
2023/10/23 12:25:33;;;;;;;2.97;0.77;;;17.00;99.90;;;;;;5073443;28;20508;-27
2023/10/23 12:27:58;;;;;;;3.58;0.52;;;16.90;99.90;;;;;;5073542;28;20435;-27
2023/10/23 12:30:25;;;;;;;1.80;0.63;;;16.80;99.90;;;;;;5073528;28;20394;-27
2023/10/23 12:32:51;;;;;;;5.47;0.63;;;16.70;99.90;;;;;;5073550;28;20045;-28
2023/10/23 12:35:17;;;;;;;2.72;0.57;;;16.60;99.90;;;;;;5072241;28;20055;-27
2023/10/23 12:37:43;;;;;;;3.25;1.75;;;16.70;99.90;;;;;;5039006;28;20194;-28
2023/10/23 12:40:10;;;;;;;5.43;1.48;;;16.70;99.90;;;;;;5074269;28;20049;-27